Time;durP1;ratioP1;P1;durP2;ratioP2;P2;SDS_P1;SDS_P2;PMS_P1;PMS_P2;Temp;Humidity;BMP_temperature;BMP_pressure;BME280_temperature;BME280_humidity;BME280_pressure;Samples;Min_cycle;Max_cycle;Signal;HPM_P1;HPM_P2
2022/02/19 00:01:34;;;;;;;;;0.00;0.00;;;;;20.31;36.54;101241.47;5080081;27;51222;-46
2022/02/19 00:04:00;;;;;;;;;3.00;1.00;;;;;20.30;36.46;101239.78;5080628;27;51237;-48
2022/02/19 00:06:26;;;;;;;;;0.00;0.00;;;;;20.29;36.52;101232.59;5081035;27;51162;-49
2022/02/19 00:08:51;;;;;;;;;0.25;0.25;;;;;20.28;36.61;101242.75;5080837;27;51365;-48
2022/02/19 00:11:16;;;;;;;;;0.75;0.00;;;;;20.26;36.62;101238.53;5079841;28;51002;-50
2022/02/19 00:13:42;;;;;;;;;0.50;0.00;;;;;20.26;36.63;101249.53;5080320;27;51272;-47
2022/02/19 00:16:07;;;;;;;;;0.00;0.00;;;;;20.25;36.68;101245.94;5080824;27;51401;-48
2022/02/19 00:18:33;;;;;;;;;0.75;0.00;;;;;20.24;36.66;101263.50;5081295;27;51283;-50
2022/02/19 00:20:58;;;;;;;;;0.75;0.75;;;;;20.23;36.54;101256.31;5081168;27;51169;-49
2022/02/19 00:23:28;;;;;;;;;0.75;0.75;;;;;20.22;36.79;101264.72;5081361;27;51009;-49
2022/02/19 00:25:53;;;;;;;;;1.00;0.25;;;;;20.21;36.79;101271.31;5096731;27;51257;-46
2022/02/19 00:28:19;;;;;;;;;0.00;0.00;;;;;20.19;36.64;101272.34;5081021;27;51332;-49
2022/02/19 00:30:44;;;;;;;;;2.00;1.00;;;;;20.18;36.56;101270.66;5080646;27;51379;-51
2022/02/19 00:33:09;;;;;;;;;2.50;0.75;;;;;20.17;36.61;101274.47;5080803;27;51104;-48
2022/02/19 00:35:35;;;;;;;;;1.00;1.00;;;;;20.17;36.42;101281.88;5080798;27;51303;-48
2022/02/19 00:38:00;;;;;;;;;1.50;0.25;;;;;20.16;36.55;101283.78;5081125;27;51522;-47
2022/02/19 00:40:25;;;;;;;;;0.25;0.00;;;;;20.14;36.90;101277.66;5078252;27;51784;-47
2022/02/19 00:42:51;;;;;;;;;1.25;0.25;;;;;20.14;36.72;101279.56;5076678;27;51206;-50
2022/02/19 00:45:16;;;;;;;;;0.75;0.00;;;;;20.13;36.77;101288.88;5077500;27;50998;-48
2022/02/19 00:47:41;;;;;;;;;1.00;1.00;;;;;20.11;36.53;101286.34;5077961;27;51138;-48
2022/02/19 00:50:08;;;;;;;;;0.00;0.00;;;;;20.12;36.76;101287.19;5076615;27;51251;-49
2022/02/19 00:52:34;;;;;;;;;1.00;0.00;;;;;20.11;36.70;101297.34;5076325;27;51210;-49
2022/02/19 00:54:59;;;;;;;;;0.00;0.00;;;;;20.10;36.60;101298.38;5076518;27;51109;-45
2022/02/19 00:57:25;;;;;;;;;0.00;0.00;;;;;20.09;36.97;101298.59;5077381;27;51456;-45
2022/02/19 00:59:50;;;;;;;;;0.00;0.00;;;;;20.08;36.68;101310.63;5076394;27;51888;-46
2022/02/19 01:02:16;;;;;;;;;0.00;0.00;;;;;20.09;36.76;101304.06;5075159;27;51083;-48
2022/02/19 01:04:41;;;;;;;;;0.00;0.00;;;;;20.07;36.96;101312.53;5077455;27;51370;-49
2022/02/19 01:07:06;;;;;;;;;4.00;1.00;;;;;20.07;36.84;101322.69;5077321;27;51103;-46
2022/02/19 01:09:32;;;;;;;;;1.00;0.00;;;;;20.06;37.05;101315.50;5076367;27;51722;-50
2022/02/19 01:11:57;;;;;;;;;0.00;0.00;;;;;20.05;36.73;101316.56;5077140;27;51094;-47
2022/02/19 01:14:23;;;;;;;;;0.00;0.00;;;;;20.03;36.88;101325.03;5076966;27;51458;-48
2022/02/19 01:16:48;;;;;;;;;0.50;0.00;;;;;20.03;36.80;101316.78;5077667;28;51340;-47
2022/02/19 01:19:14;;;;;;;;;1.00;0.50;;;;;20.02;36.90;101320.59;5076758;28;51603;-50
2022/02/19 01:21:39;;;;;;;;;0.00;0.00;;;;;20.02;37.07;101330.75;5076882;27;51036;-47
2022/02/19 01:24:05;;;;;;;;;0.00;0.00;;;;;20.00;36.71;101328.16;5077267;27;51183;-45
2022/02/19 01:26:31;;;;;;;;;1.25;1.00;;;;;20.00;36.95;101333.66;5076877;27;50945;-50
2022/02/19 01:28:57;;;;;;;;;0.00;0.00;;;;;19.98;36.66;101335.78;5076406;27;52444;-46
2022/02/19 01:31:24;;;;;;;;;2.50;0.50;;;;;19.99;36.66;101333.88;5076744;27;51053;-48
2022/02/19 01:33:50;;;;;;;;;2.50;0.25;;;;;19.98;36.90;101337.69;5076462;27;50985;-47
2022/02/19 01:36:15;;;;;;;;;2.75;0.25;;;;;19.98;37.11;101338.53;5076942;27;51309;-48
2022/02/19 01:38:40;;;;;;;;;0.00;0.00;;;;;19.97;36.76;101334.09;5076626;27;51131;-50
2022/02/19 01:41:06;;;;;;;;;1.00;0.00;;;;;19.96;36.94;101332.41;5076420;27;51108;-50
2022/02/19 01:43:31;;;;;;;;;0.00;0.00;;;;;19.96;36.78;101339.81;5076462;27;51073;-45
2022/02/19 01:45:57;;;;;;;;;0.00;0.00;;;;;19.94;36.94;101345.50;5076590;27;51121;-49
2022/02/19 01:48:22;;;;;;;;;0.00;0.00;;;;;19.95;36.99;101340.88;5068056;28;52032;-51
2022/02/19 01:50:48;;;;;;;;;0.00;0.00;;;;;19.95;36.87;101346.38;5076304;27;51046;-49
2022/02/19 01:53:15;;;;;;;;;1.50;0.25;;;;;19.95;36.77;101349.09;5074392;27;51170;-50
2022/02/19 01:55:41;;;;;;;;;3.75;1.75;;;;;19.94;36.72;101341.91;5076495;27;51115;-46
2022/02/19 01:58:07;;;;;;;;;0.00;0.00;;;;;19.93;36.57;101331.97;5075854;27;51898;-49
2022/02/19 02:00:33;;;;;;;;;0.25;0.25;;;;;19.92;36.85;101339.38;5075501;28;51593;-50
2022/02/19 02:02:58;;;;;;;;;0.50;0.00;;;;;19.92;36.80;101344.88;5076514;27;51389;-50
2022/02/19 02:05:25;;;;;;;;;0.00;0.00;;;;;19.91;36.80;101343.19;5076277;27;51171;-44
2022/02/19 02:07:50;;;;;;;;;0.50;0.50;;;;;19.89;37.05;101346.13;5075180;28;51879;-48
2022/02/19 02:10:16;;;;;;;;;1.00;1.00;;;;;19.89;36.88;101357.13;5074700;28;52365;-50
2022/02/19 02:12:42;;;;;;;;;0.00;0.00;;;;;19.88;36.88;101347.19;5075986;27;52471;-48
2022/02/19 02:15:28;;;;;;;;;1.50;1.00;;;;;19.88;37.11;101346.31;5076506;27;51263;-44
2022/02/19 02:17:53;;;;;;;;;1.00;0.00;;;;;19.87;37.08;101350.13;5075489;28;51239;-47
2022/02/19 02:20:19;;;;;;;;;0.50;0.50;;;;;19.86;37.17;101351.19;5076001;27;51154;-48
2022/02/19 02:22:45;;;;;;;;;1.75;0.50;;;;;19.85;36.75;101353.09;5076010;27;51036;-45
2022/02/19 02:25:12;;;;;;;;;0.00;0.00;;;;;19.84;36.81;101345.91;5075179;27;51064;-44
2022/02/19 02:27:38;;;;;;;;;0.75;0.75;;;;;19.82;36.66;101341.66;5074544;27;51119;-46
2022/02/19 02:30:04;;;;;;;;;0.00;0.00;;;;;19.83;36.90;101349.72;5071593;28;51128;-44
2022/02/19 02:32:30;;;;;;;;;0.00;0.00;;;;;19.83;37.16;101348.88;5067952;28;51219;-49
2022/02/19 02:34:56;;;;;;;;;1.00;0.00;;;;;19.83;36.74;101337.88;5076269;27;50973;-50
2022/02/19 02:37:22;;;;;;;;;0.00;0.00;;;;;19.80;36.82;101341.00;5075598;27;51058;-45
2022/02/19 02:39:48;;;;;;;;;0.00;0.00;;;;;19.80;37.10;101343.75;5075720;27;51304;-49
2022/02/19 02:42:20;;;;;;;;;0.00;0.00;;;;;19.80;37.01;101350.13;5075166;27;51068;-47
2022/02/19 02:44:46;;;;;;;;;1.00;0.25;;;;;19.78;36.79;101346.72;5076048;27;51243;-49
2022/02/19 02:47:12;;;;;;;;;0.00;0.00;;;;;19.79;37.00;101342.06;5075690;27;51981;-50
2022/02/19 02:49:38;;;;;;;;;1.00;0.00;;;;;19.78;37.12;101357.72;5075340;28;51025;-46
2022/02/19 02:52:07;;;;;;;;;0.00;0.00;;;;;19.78;36.79;101346.72;5091478;27;51258;-45
2022/02/19 02:54:33;;;;;;;;;0.00;0.00;;;;;19.77;37.01;101342.28;5075886;27;51313;-45
2022/02/19 02:56:59;;;;;;;;;1.00;0.00;;;;;19.77;36.93;101360.66;5075318;27;51050;-47
2022/02/19 02:59:24;;;;;;;;;1.50;1.00;;;;;19.76;37.02;101361.72;5075760;27;50914;-50
2022/02/19 03:01:49;;;;;;;;;0.25;0.25;;;;;19.76;36.94;101356.22;5075714;27;51242;-45
2022/02/19 03:04:15;;;;;;;;;0.50;0.25;;;;;19.75;37.29;101362.78;5075075;28;51336;-49
2022/02/19 03:06:40;;;;;;;;;0.00;0.00;;;;;19.75;36.62;101365.53;5075492;27;51902;-45
2022/02/19 03:09:05;;;;;;;;;2.00;1.00;;;;;19.73;37.07;101365.75;5075404;27;51170;-48
2022/02/19 03:11:30;;;;;;;;;0.00;0.00;;;;;19.73;37.07;101365.75;5074912;27;51263;-46
2022/02/19 03:13:56;;;;;;;;;0.50;0.00;;;;;19.73;36.92;101364.91;5074858;27;51123;-48
2022/02/19 03:16:21;;;;;;;;;0.00;0.00;;;;;19.72;37.03;101371.44;5075150;27;51118;-47
2022/02/19 03:18:46;;;;;;;;;0.00;0.00;;;;;19.71;36.97;101362.34;5074777;27;51035;-49
2022/02/19 03:21:12;;;;;;;;;0.00;0.00;;;;;19.71;37.08;101373.34;5091037;27;51150;-49
2022/02/19 03:23:37;;;;;;;;;0.00;0.00;;;;;19.71;37.06;101380.75;5074992;28;51171;-46
2022/02/19 03:26:07;;;;;;;;;0.00;0.00;;;;;19.69;37.00;101380.94;5075122;27;51075;-47
2022/02/19 03:28:32;;;;;;;;;0.00;0.00;;;;;19.69;37.16;101380.94;5074991;27;51147;-47
2022/02/19 03:30:58;;;;;;;;;0.00;0.00;;;;;19.69;36.81;101396.56;5074741;27;51335;-48
2022/02/19 03:33:23;;;;;;;;;0.00;0.00;;;;;19.68;37.06;101381.13;5075676;27;50991;-49
2022/02/19 03:35:49;;;;;;;;;2.25;1.00;;;;;19.66;36.92;101377.75;5074257;27;52130;-48
2022/02/19 03:38:14;;;;;;;;;0.25;0.25;;;;;19.68;37.04;101389.38;5075268;27;51027;-50
2022/02/19 03:40:39;;;;;;;;;0.00;0.00;;;;;19.65;37.05;101385.16;5075060;27;51269;-49
2022/02/19 03:43:05;;;;;;;;;0.50;0.00;;;;;19.65;37.00;101387.03;5075192;27;51043;-48
2022/02/19 03:45:30;;;;;;;;;0.25;0.25;;;;;19.64;37.23;101394.44;5074445;27;51867;-48
2022/02/19 03:47:56;;;;;;;;;0.75;0.75;;;;;19.64;37.00;101397.19;5074695;28;51321;-48
2022/02/19 03:50:21;;;;;;;;;0.00;0.00;;;;;19.63;36.96;101395.50;5074172;27;51211;-47
2022/02/19 03:52:47;;;;;;;;;0.25;0.00;;;;;19.63;37.06;101394.66;5075215;27;51137;-48
2022/02/19 03:55:13;;;;;;;;;1.00;1.00;;;;;19.62;37.18;101402.06;5073779;27;51741;-49
2022/02/19 03:57:38;;;;;;;;;0.00;0.00;;;;;19.62;37.00;101401.22;5074491;27;51097;-45
2022/02/19 04:00:11;;;;;;;;;0.00;0.00;;;;;19.62;36.87;101409.44;5074617;28;51110;-49
2022/02/19 04:02:38;;;;;;;;;1.00;1.00;;;;;19.62;36.89;101412.19;5074314;27;51324;-49
2022/02/19 04:05:07;;;;;;;;;0.00;0.00;;;;;19.60;36.80;101413.25;5074480;27;52028;-44
2022/02/19 04:07:32;;;;;;;;;0.00;0.00;;;;;19.60;37.19;101409.66;5072658;28;51123;-45
2022/02/19 04:09:58;;;;;;;;;0.00;0.00;;;;;19.59;36.81;101414.31;5074346;27;51049;-49
2022/02/19 04:12:25;;;;;;;;;0.50;0.00;;;;;19.58;37.16;101411.72;5074600;27;51147;-46
2022/02/19 04:14:50;;;;;;;;;0.50;0.50;;;;;19.59;37.16;101424.41;5074427;27;51894;-45
2022/02/19 04:17:16;;;;;;;;;0.00;0.00;;;;;19.58;37.15;101417.22;5077989;27;51355;-49
2022/02/19 04:19:41;;;;;;;;;0.00;0.00;;;;;19.56;37.10;101430.31;5077822;27;51358;-45
2022/02/19 04:22:06;;;;;;;;;0.00;0.00;;;;;19.56;37.28;101433.94;5078183;27;50985;-48
2022/02/19 04:24:32;;;;;;;;;0.00;0.00;;;;;19.57;37.24;101443.00;5077957;27;51012;-46
2022/02/19 04:26:57;;;;;;;;;0.00;0.00;;;;;19.56;37.16;101442.16;5077703;27;51177;-45
2022/02/19 04:29:23;;;;;;;;;0.00;0.00;;;;;19.56;37.13;101449.56;5077476;27;51183;-49
2022/02/19 04:31:54;;;;;;;;;1.00;1.00;;;;;19.55;37.15;101447.84;5077954;27;51146;-46
2022/02/19 04:34:21;;;;;;;;;0.00;0.00;;;;;19.54;37.10;101454.38;5076921;27;52042;-49
2022/02/19 04:36:46;;;;;;;;;3.00;1.00;;;;;19.54;36.76;101460.72;5077449;27;51137;-47
2022/02/19 04:39:11;;;;;;;;;0.00;0.00;;;;;19.54;36.98;101462.63;5077703;27;52490;-48
2022/02/19 04:41:37;;;;;;;;;0.00;0.00;;;;;19.52;37.02;101457.34;5078373;27;51102;-45
2022/02/19 04:44:03;;;;;;;;;0.50;0.00;;;;;19.52;37.19;101462.84;5077289;28;51154;-48
2022/02/19 04:46:28;;;;;;;;;0.00;0.00;;;;;19.53;37.01;101469.19;5077149;27;51168;-50
2022/02/19 04:48:53;;;;;;;;;2.00;0.00;;;;;19.52;36.88;101482.06;5077753;27;51253;-48
2022/02/19 04:51:19;;;;;;;;;2.00;0.00;;;;;19.51;37.16;101477.63;5077698;27;51058;-48
2022/02/19 04:53:44;;;;;;;;;1.00;1.00;;;;;19.50;36.93;101480.59;5077638;27;51004;-47
2022/02/19 04:56:10;;;;;;;;;0.00;0.00;;;;;19.51;37.12;101493.28;5092184;27;51157;-45
2022/02/19 04:58:36;;;;;;;;;0.25;0.25;;;;;19.49;36.85;101496.22;5077571;27;51198;-49
2022/02/19 05:01:01;;;;;;;;;0.75;0.75;;;;;19.49;36.97;101495.38;5077460;27;51250;-48
2022/02/19 05:03:27;;;;;;;;;2.25;0.00;;;;;19.48;37.11;101500.00;5076970;27;51966;-45
2022/02/19 05:05:52;;;;;;;;;0.00;0.00;;;;;19.47;37.00;101492.81;5076941;27;51151;-50
2022/02/19 05:08:17;;;;;;;;;0.75;0.75;;;;;19.47;37.00;101492.81;5076843;27;51125;-48
2022/02/19 05:10:43;;;;;;;;;0.00;0.00;;;;;19.46;37.13;101498.50;5077465;27;51098;-45
2022/02/19 05:13:08;;;;;;;;;0.75;0.00;;;;;19.45;36.95;101492.16;5077387;27;51723;-45
2022/02/19 05:15:33;;;;;;;;;0.00;0.00;;;;;19.45;37.40;101496.81;5076867;27;51521;-47
2022/02/19 05:18:01;;;;;;;;;1.00;0.00;;;;;19.44;37.08;101504.19;5077527;27;51187;-46
2022/02/19 05:20:27;;;;;;;;;0.75;0.00;;;;;19.44;36.89;101508.84;5076985;27;50976;-46
2022/02/19 05:22:53;;;;;;;;;0.00;0.00;;;;;19.43;36.97;101513.50;5077085;27;52344;-49
2022/02/19 05:25:19;;;;;;;;;0.00;0.00;;;;;19.44;36.95;101514.34;5077528;27;51107;-50
2022/02/19 05:27:44;;;;;;;;;0.75;0.75;;;;;19.43;37.20;101518.16;5076324;27;51841;-45
2022/02/19 05:30:11;;;;;;;;;0.50;0.50;;;;;19.43;37.16;101520.88;5077351;27;51352;-45
2022/02/19 05:32:36;;;;;;;;;1.00;1.00;;;;;19.43;37.31;101524.47;5076830;27;52150;-45
2022/02/19 05:35:04;;;;;;;;;0.25;0.00;;;;;19.42;36.92;101510.94;5077201;27;51076;-49
2022/02/19 05:37:30;;;;;;;;;0.50;0.50;;;;;19.42;37.13;101513.69;5076932;27;52392;-46
2022/02/19 05:39:57;;;;;;;;;0.00;0.00;;;;;19.41;36.99;101512.84;5077160;27;51043;-46
2022/02/19 05:42:22;;;;;;;;;2.00;0.50;;;;;19.41;36.91;101512.84;5076834;27;51905;-46
2022/02/19 05:44:47;;;;;;;;;0.50;0.50;;;;;19.41;37.22;101509.25;5076622;28;51139;-48
2022/02/19 05:47:13;;;;;;;;;1.00;0.00;;;;;19.41;37.07;101514.75;5076510;27;51907;-46
2022/02/19 05:49:38;;;;;;;;;1.00;1.00;;;;;19.41;37.53;101518.34;5077095;27;51100;-48
2022/02/19 05:52:04;;;;;;;;;3.00;1.00;;;;;19.40;37.09;101521.28;5076118;27;51099;-50
2022/02/19 05:54:29;;;;;;;;;0.00;0.00;;;;;19.39;37.15;101517.69;5076620;27;51192;-46
2022/02/19 05:56:55;;;;;;;;;2.50;0.25;;;;;19.39;37.00;101528.69;5076484;27;51218;-47
2022/02/19 05:59:20;;;;;;;;;1.00;1.00;;;;;19.38;37.02;101513.22;5076672;27;51207;-45
2022/02/19 06:01:45;;;;;;;;;1.50;1.00;;;;;19.38;36.93;101510.47;5075983;27;50937;-49
2022/02/19 06:04:11;;;;;;;;;2.75;1.50;;;;;19.38;37.16;101515.13;5075975;27;51099;-50
2022/02/19 06:06:36;;;;;;;;;2.00;0.25;;;;;19.37;37.05;101514.28;5076459;27;51265;-49
2022/02/19 06:09:02;;;;;;;;;0.75;0.75;;;;;19.38;37.12;101515.13;5076026;27;50950;-49
2022/02/19 06:11:27;;;;;;;;;2.00;2.00;;;;;19.37;37.23;101508.78;5076180;27;51214;-47
2022/02/19 06:13:52;;;;;;;;;3.00;0.00;;;;;19.37;37.17;101522.53;5075922;27;51118;-51
2022/02/19 06:16:17;;;;;;;;;2.25;1.25;;;;;19.38;37.37;101515.13;5076232;27;50997;-47
2022/02/19 06:18:43;;;;;;;;;1.75;1.75;;;;;19.37;37.24;101521.66;5076004;27;51069;-46
2022/02/19 06:21:08;;;;;;;;;1.25;1.00;;;;;19.36;37.17;101526.31;5075616;27;51167;-48
2022/02/19 06:23:34;;;;;;;;;1.00;1.00;;;;;19.36;37.20;101528.22;5076079;27;51029;-49
2022/02/19 06:25:59;;;;;;;;;2.00;1.25;;;;;19.34;37.01;101517.44;5076478;27;50974;-48
2022/02/19 06:28:24;;;;;;;;;0.75;0.25;;;;;19.34;37.26;101533.91;5075925;27;51318;-47
2022/02/19 06:30:50;;;;;;;;;0.00;0.00;;;;;19.32;37.30;101525.88;5075602;27;51138;-48
2022/02/19 06:33:15;;;;;;;;;1.00;1.00;;;;;19.32;36.87;101530.53;5075698;27;51266;-45
2022/02/19 06:35:41;;;;;;;;;1.00;1.00;;;;;19.32;37.05;101533.28;5076300;28;51259;-48
2022/02/19 06:38:06;;;;;;;;;2.00;2.00;;;;;19.30;37.06;101533.47;5074853;27;51178;-49
2022/02/19 06:40:32;;;;;;;;;1.00;1.00;;;;;19.31;36.99;101539.81;5075467;28;51223;-48
2022/02/19 06:42:57;;;;;;;;;1.00;1.00;;;;;19.31;37.13;101548.06;5075972;27;51219;-46
2022/02/19 06:45:22;;;;;;;;;1.25;0.50;;;;;19.30;36.90;101552.69;5075458;27;51177;-48
2022/02/19 06:47:48;;;;;;;;;2.00;1.00;;;;;19.29;37.07;101559.25;5076103;27;51293;-48
2022/02/19 06:50:13;;;;;;;;;1.75;1.00;;;;;19.29;37.33;101558.41;5074845;27;51703;-46
2022/02/19 06:52:38;;;;;;;;;1.25;1.25;;;;;19.29;37.07;101563.91;5075652;27;51449;-50
2022/02/19 06:55:04;;;;;;;;;2.00;0.75;;;;;19.29;36.89;101563.91;5075538;27;51118;-44
2022/02/19 06:57:30;;;;;;;;;0.00;0.00;;;;;19.28;37.15;101570.44;5075535;27;51497;-49
2022/02/19 06:59:55;;;;;;;;;0.00;0.00;;;;;19.27;37.17;101586.03;5075809;27;51984;-49
2022/02/19 07:02:20;;;;;;;;;0.50;0.50;;;;;19.28;37.32;101582.28;5075357;27;50985;-49
2022/02/19 07:04:46;;;;;;;;;0.50;0.50;;;;;19.27;36.92;101585.19;5075680;28;51095;-49
2022/02/19 07:07:15;;;;;;;;;0.25;0.00;;;;;19.26;36.96;101592.59;5075284;27;51296;-50
2022/02/19 07:09:41;;;;;;;;;1.50;0.75;;;;;19.25;37.26;101599.13;5074718;28;51053;-47
2022/02/19 07:12:07;;;;;;;;;3.50;1.00;;;;;19.26;37.02;101591.72;5074210;27;51499;-47
2022/02/19 07:14:33;;;;;;;;;1.75;1.25;;;;;19.25;37.24;101592.78;5075232;28;51075;-50
2022/02/19 07:17:04;;;;;;;;;1.00;0.00;;;;;19.25;37.24;101601.03;5075752;27;51182;-49
2022/02/19 07:19:31;;;;;;;;;1.50;1.00;;;;;19.24;37.07;101597.44;5074733;27;52859;-49
2022/02/19 07:21:56;;;;;;;;;0.50;0.00;;;;;19.24;37.08;101602.06;5075019;27;51500;-47
2022/02/19 07:24:21;;;;;;;;;1.00;0.75;;;;;19.23;37.09;101600.38;5075223;27;51187;-48
2022/02/19 07:26:46;;;;;;;;;2.50;1.00;;;;;19.22;37.18;101602.28;5075694;27;51126;-46
2022/02/19 07:29:12;;;;;;;;;0.75;0.00;;;;;19.23;37.26;101606.72;5074577;27;51890;-49
2022/02/19 07:31:37;;;;;;;;;0.50;0.50;;;;;19.22;37.30;101607.75;5074736;28;51112;-47
2022/02/19 07:34:02;;;;;;;;;1.75;1.75;;;;;19.23;38.03;101617.69;5074428;27;51325;-47
2022/02/19 07:36:28;;;;;;;;;2.50;1.00;;;;;19.25;38.44;101614.75;5075416;27;51327;-45
2022/02/19 07:38:53;;;;;;;;;0.50;0.00;;;;;19.27;38.60;101635.47;5074903;27;51037;-48
2022/02/19 07:41:19;;;;;;;;;0.50;0.50;;;;;19.28;37.94;101630.88;5074953;27;51130;-49
2022/02/19 07:43:45;;;;;;;;;2.00;0.50;;;;;19.29;36.80;101632.56;5074833;27;51114;-48
2022/02/19 07:46:11;;;;;;;;;3.00;1.00;;;;;19.26;35.71;101639.28;5073445;28;51073;-52
2022/02/19 07:48:36;;;;;;;;;1.00;1.00;;;;;19.22;35.12;101642.63;5074593;27;52793;-46
2022/02/19 07:59:14;;;;;;;;;4.00;2.25;;;;;18.94;33.89;101657.09;5076006;28;51092;-52
2022/02/19 08:01:40;;;;;;;;;7.25;2.50;;;;;18.90;33.62;101663.16;5078645;27;51123;-51
2022/02/19 08:04:05;;;;;;;;;2.00;1.00;;;;;18.83;33.44;101668.56;5077588;27;51315;-47
2022/02/19 08:06:32;;;;;;;;;5.50;1.25;;;;;18.78;33.61;101665.56;5078785;27;51011;-47
2022/02/19 08:08:57;;;;;;;;;2.00;0.75;;;;;18.73;33.84;101668.84;5077619;28;51064;-48
2022/02/19 08:11:23;;;;;;;;;1.00;1.00;;;;;18.75;33.63;101657.69;5078468;27;51452;-49
2022/02/19 08:13:48;;;;;;;;;0.50;0.50;;;;;18.81;33.86;101675.28;5077651;27;51001;-50
2022/02/19 08:16:13;;;;;;;;;1.00;1.00;;;;;18.87;34.17;101664.41;5078058;27;51119;-44
2022/02/19 08:18:39;;;;;;;;;2.50;1.50;;;;;18.95;34.30;101667.00;5078133;27;51797;-46
2022/02/19 08:21:06;;;;;;;;;0.75;0.25;;;;;19.03;34.46;101668.81;5078082;27;51101;-46
2022/02/19 08:23:31;;;;;;;;;1.00;1.00;;;;;19.12;34.48;101666.81;5078550;27;51181;-45
2022/02/19 08:25:57;;;;;;;;;1.00;0.75;;;;;19.21;34.35;101657.41;5077802;27;51395;-45
2022/02/19 08:28:23;;;;;;;;;2.00;1.00;;;;;19.29;34.14;101657.28;5077970;27;51018;-46
2022/02/19 08:30:50;;;;;;;;;1.50;0.75;;;;;19.38;34.19;101658.00;5077515;27;51347;-46
2022/02/19 08:33:16;;;;;;;;;2.50;1.00;;;;;19.46;34.06;101660.63;5077956;27;51165;-46
2022/02/19 08:35:42;;;;;;;;;1.75;1.50;;;;;19.54;34.17;101663.25;5077334;27;51480;-45
2022/02/19 08:38:10;;;;;;;;;2.00;1.00;;;;;19.62;33.92;101659.56;5077572;28;51373;-44
2022/02/19 08:40:35;;;;;;;;;1.50;1.00;;;;;19.70;33.74;101663.03;5078042;27;51119;-44
2022/02/19 08:43:01;;;;;;;;;1.50;1.50;;;;;19.77;34.01;101663.06;5077557;27;51045;-43
2022/02/19 08:45:27;;;;;;;;;0.75;0.00;;;;;19.86;33.64;101665.47;5077868;27;50993;-45
2022/02/19 08:47:54;;;;;;;;;4.00;1.00;;;;;19.95;33.93;101670.84;5077638;27;51938;-45
2022/02/19 08:50:20;;;;;;;;;1.00;1.00;;;;;20.02;33.74;101669.84;5077707;27;51398;-47
2022/02/19 08:52:48;;;;;;;;;1.00;0.75;;;;;20.12;33.66;101672.25;5077247;27;51066;-50
2022/02/19 08:55:16;;;;;;;;;1.50;0.25;;;;;20.20;33.70;101674.84;5077723;27;51167;-44
2022/02/19 08:57:41;;;;;;;;;1.00;0.00;;;;;20.26;33.47;101673.19;5077043;27;51209;-48
2022/02/19 09:00:10;;;;;;;;;0.25;0.00;;;;;20.30;33.27;101674.47;5077486;28;51088;-47
2022/02/19 09:02:36;;;;;;;;;1.00;1.00;;;;;20.31;33.49;101676.19;5068824;28;50936;-49
2022/02/19 09:05:02;;;;;;;;;0.50;0.50;;;;;20.32;33.17;101670.50;5077365;27;50916;-46
2022/02/19 09:07:28;;;;;;;;;1.00;1.00;;;;;20.33;33.20;101674.94;5076405;28;52196;-42
2022/02/19 09:09:53;;;;;;;;;0.00;0.00;;;;;20.32;33.17;101678.75;5077205;27;50969;-46
2022/02/19 09:12:20;;;;;;;;;0.50;0.50;;;;;20.33;33.27;101683.19;5076385;27;51108;-44
2022/02/19 09:14:46;;;;;;;;;1.00;1.00;;;;;20.35;33.54;101694.00;5077732;27;51215;-46
2022/02/19 09:17:11;;;;;;;;;1.00;1.00;;;;;20.38;33.75;101693.59;5076603;27;51910;-44
2022/02/19 09:19:36;;;;;;;;;2.00;2.00;;;;;20.40;33.75;101696.97;5077102;27;50961;-48
2022/02/19 09:22:03;;;;;;;;;0.00;0.00;;;;;20.42;33.47;101687.50;5077395;27;51557;-49
2022/02/19 09:24:29;;;;;;;;;3.00;1.00;;;;;20.48;33.52;101685.84;5077006;27;51246;-50
2022/02/19 09:26:54;;;;;;;;;3.25;0.75;;;;;20.52;33.79;101694.56;5076369;27;51807;-45
2022/02/19 09:29:20;;;;;;;;;2.75;0.00;;;;;20.53;33.92;101683.38;5076567;27;50991;-44
2022/02/19 09:31:45;;;;;;;;;1.50;1.50;;;;;20.51;33.62;101677.19;5077085;27;51150;-45
2022/02/19 09:34:10;;;;;;;;;0.75;0.50;;;;;20.50;33.51;101674.66;5077150;28;50977;-48
2022/02/19 09:36:37;;;;;;;;;0.00;0.00;;;;;20.46;33.84;101675.06;5076196;27;51722;-43
2022/02/19 09:39:03;;;;;;;;;0.00;0.00;;;;;20.46;33.63;101674.22;5076945;28;51282;-49
2022/02/19 09:41:30;;;;;;;;;2.75;1.00;;;;;20.45;33.74;101672.50;5076603;27;51156;-46
2022/02/19 09:43:55;;;;;;;;;0.50;0.25;;;;;20.44;33.92;101679.91;5076269;27;51099;-45
2022/02/19 09:46:21;;;;;;;;;1.25;1.00;;;;;20.43;34.31;101669.97;5076167;27;51173;-48
2022/02/19 09:48:47;;;;;;;;;1.00;1.00;;;;;20.43;34.04;101666.38;5076613;27;51246;-48
2022/02/19 09:51:13;;;;;;;;;2.00;0.75;;;;;20.43;33.98;101669.97;5076383;27;51056;-45
2022/02/19 09:53:39;;;;;;;;;1.50;0.50;;;;;20.44;33.69;101676.31;5076502;27;51026;-47
2022/02/19 09:56:06;;;;;;;;;2.00;1.00;;;;;20.44;33.71;101677.16;5076492;27;51697;-45
2022/02/19 09:58:33;;;;;;;;;0.00;0.00;;;;;20.45;33.72;101684.38;5076350;27;51276;-45
2022/02/19 10:01:15;;;;;;;;;2.00;1.00;;;;;20.47;33.98;101681.41;5075990;27;51018;-49
2022/02/19 10:03:41;;;;;;;;;1.00;0.50;;;;;20.49;34.00;101679.31;5076598;27;50983;-45
2022/02/19 10:06:14;;;;;;;;;1.25;1.00;;;;;20.49;33.99;101673.78;5075569;27;51020;-45
2022/02/19 10:08:40;;;;;;;;;0.75;0.75;;;;;20.50;33.90;101671.91;5076070;27;51362;-44
2022/02/19 10:11:06;;;;;;;;;1.75;1.00;;;;;20.51;33.85;101671.69;5075902;27;51174;-48
2022/02/19 10:13:36;;;;;;;;;1.50;0.75;;;;;20.53;33.97;101663.22;5074467;27;51182;-44
2022/02/19 10:16:07;;;;;;;;;1.00;1.00;;;;;20.54;33.79;101665.78;5068664;28;51060;-48
2022/02/19 10:18:34;;;;;;;;;1.50;0.00;;;;;20.54;33.73;101654.78;5076007;28;51655;-46
2022/02/19 10:21:16;;;;;;;;;1.00;1.00;;;;;20.57;34.09;101659.03;5075765;27;51132;-47
2022/02/19 10:23:46;;;;;;;;;2.00;1.00;;;;;20.58;33.46;101652.47;5076233;27;51211;-47
2022/02/19 10:26:14;;;;;;;;;1.00;0.50;;;;;20.60;33.96;101656.72;5075558;27;51166;-46
2022/02/19 10:28:39;;;;;;;;;3.50;1.00;;;;;20.61;33.82;101658.41;5075863;28;51111;-44
2022/02/19 10:31:11;;;;;;;;;2.75;1.00;;;;;20.62;33.64;101651.00;5075516;27;51100;-44
2022/02/19 10:33:37;;;;;;;;;1.00;0.00;;;;;20.64;33.95;101649.75;5076051;27;51124;-48
2022/02/19 10:36:03;;;;;;;;;0.25;0.25;;;;;20.65;33.78;101651.47;5075152;28;51298;-46
2022/02/19 10:38:28;;;;;;;;;3.50;1.00;;;;;20.66;33.67;101655.06;5075456;27;51322;-47
2022/02/19 10:40:56;;;;;;;;;2.25;1.00;;;;;20.68;33.57;101656.53;5075764;27;51362;-46
2022/02/19 10:43:29;;;;;;;;;1.00;0.50;;;;;20.69;33.48;101658.25;5075227;27;50977;-46
2022/02/19 10:45:57;;;;;;;;;1.25;0.00;;;;;20.71;33.64;101649.78;5075408;27;51896;-48
2022/02/19 10:48:26;;;;;;;;;1.75;1.75;;;;;20.72;33.71;101655.06;5075328;27;51302;-47
2022/02/19 10:50:52;;;;;;;;;1.00;0.00;;;;;20.72;33.86;101646.81;5075086;27;51186;-48
2022/02/19 10:53:23;;;;;;;;;1.00;0.00;;;;;20.73;33.89;101643.00;5075716;28;51017;-48
2022/02/19 10:55:49;;;;;;;;;1.50;0.00;;;;;20.77;33.88;101645.38;5074240;27;51137;-48
2022/02/19 10:58:15;;;;;;;;;3.75;0.25;;;;;20.77;33.93;101634.34;5075276;28;50954;-46
2022/02/19 11:00:40;;;;;;;;;1.75;1.00;;;;;20.78;33.82;101633.28;5074617;28;51146;-45
2022/02/19 11:03:09;;;;;;;;;0.25;0.25;;;;;20.78;33.40;101636.06;5075585;27;51179;-45
2022/02/19 11:05:35;;;;;;;;;1.00;1.00;;;;;20.77;33.43;101642.63;5074658;27;51951;-46
2022/02/19 11:08:01;;;;;;;;;0.75;0.75;;;;;20.79;33.74;101654.25;5075240;28;51141;-48
2022/02/19 11:10:28;;;;;;;;;0.00;0.00;;;;;20.79;33.67;101646.00;5074735;27;51030;-46
2022/02/19 11:12:54;;;;;;;;;1.00;1.00;;;;;20.79;33.61;101646.00;5074797;27;50983;-47
2022/02/19 11:15:20;;;;;;;;;1.00;1.00;;;;;20.80;33.27;101650.44;5074511;27;50975;-46
2022/02/19 11:17:47;;;;;;;;;0.50;0.25;;;;;20.80;33.68;101644.94;5074832;27;51205;-46
2022/02/19 11:20:13;;;;;;;;;0.00;0.00;;;;;20.79;33.83;101643.25;5073266;27;51315;-47
2022/02/19 11:22:40;;;;;;;;;0.25;0.00;;;;;20.80;33.49;101637.53;5074378;28;51345;-47
2022/02/19 11:25:09;;;;;;;;;1.00;1.00;;;;;20.79;33.90;101632.22;5074098;27;51803;-46
2022/02/19 11:27:59;;;;;;;;;1.00;1.00;;;;;20.79;33.75;101633.09;5074105;27;51199;-45